sensor_id;sensor_type;location;lat;lon;timestamp;P1;durP1;ratioP1;P2;durP2;ratioP2
47309;SDS011;33046;52.270;6.832;2023-05-09T00:01:19;7.07;;;6.47;;
47309;SDS011;33046;52.270;6.832;2023-05-09T00:03:26;7.28;;;6.57;;
47309;SDS011;33046;52.270;6.832;2023-05-09T00:05:34;7.57;;;6.97;;
47309;SDS011;33046;52.270;6.832;2023-05-09T00:07:41;8.52;;;7.82;;
47309;SDS011;33046;52.270;6.832;2023-05-09T00:09:48;8.52;;;7.65;;
47309;SDS011;33046;52.270;6.832;2023-05-09T00:11:54;8.15;;;7.55;;
47309;SDS011;33046;52.270;6.832;2023-05-09T00:14:01;8.40;;;7.70;;
47309;SDS011;33046;52.270;6.832;2023-05-09T00:16:08;9.68;;;8.70;;
47309;SDS011;33046;52.270;6.832;2023-05-09T00:18:15;9.00;;;8.20;;
47309;SDS011;33046;52.270;6.832;2023-05-09T00:20:22;8.23;;;7.53;;
47309;SDS011;33046;52.270;6.832;2023-05-09T00:22:30;8.93;;;8.20;;
47309;SDS011;33046;52.270;6.832;2023-05-09T00:24:36;9.60;;;8.70;;
47309;SDS011;33046;52.270;6.832;2023-05-09T00:26:43;10.38;;;9.32;;
47309;SDS011;33046;52.270;6.832;2023-05-09T00:28:50;9.55;;;8.75;;
47309;SDS011;33046;52.270;6.832;2023-05-09T00:30:57;11.10;;;9.25;;
47309;SDS011;33046;52.270;6.832;2023-05-09T00:33:04;10.52;;;9.52;;
47309;SDS011;33046;52.270;6.832;2023-05-09T00:35:10;9.95;;;9.15;;
47309;SDS011;33046;52.270;6.832;2023-05-09T00:37:18;11.63;;;10.63;;
47309;SDS011;33046;52.270;6.832;2023-05-09T00:39:26;9.68;;;8.88;;
47309;SDS011;33046;52.270;6.832;2023-05-09T00:41:33;10.68;;;9.68;;
47309;SDS011;33046;52.270;6.832;2023-05-09T00:43:39;11.27;;;10.15;;
47309;SDS011;33046;52.270;6.832;2023-05-09T00:45:46;10.65;;;9.75;;
47309;SDS011;33046;52.270;6.832;2023-05-09T00:47:54;10.40;;;9.52;;
47309;SDS011;33046;52.270;6.832;2023-05-09T00:50:01;10.25;;;9.45;;
47309;SDS011;33046;52.270;6.832;2023-05-09T00:52:08;10.13;;;9.32;;
47309;SDS011;33046;52.270;6.832;2023-05-09T00:54:14;10.75;;;9.85;;
47309;SDS011;33046;52.270;6.832;2023-05-09T00:56:23;10.48;;;9.48;;
47309;SDS011;33046;52.270;6.832;2023-05-09T00:58:29;10.63;;;9.65;;
47309;SDS011;33046;52.270;6.832;2023-05-09T01:00:36;10.00;;;9.20;;
47309;SDS011;33046;52.270;6.832;2023-05-09T01:02:43;10.60;;;9.60;;
47309;SDS011;33046;52.270;6.832;2023-05-09T01:04:53;10.20;;;9.15;;
47309;SDS011;33046;52.270;6.832;2023-05-09T01:07:01;9.32;;;8.52;;
47309;SDS011;33046;52.270;6.832;2023-05-09T01:09:13;10.13;;;9.32;;
47309;SDS011;33046;52.270;6.832;2023-05-09T01:11:28;10.25;;;9.45;;
47309;SDS011;33046;52.270;6.832;2023-05-09T01:13:39;10.50;;;9.57;;
47309;SDS011;33046;52.270;6.832;2023-05-09T01:15:52;10.18;;;9.18;;
47309;SDS011;33046;52.270;6.832;2023-05-09T01:18:05;9.32;;;8.52;;
47309;SDS011;33046;52.270;6.832;2023-05-09T01:20:19;10.18;;;9.02;;
47309;SDS011;33046;52.270;6.832;2023-05-09T01:22:32;9.60;;;8.80;;
47309;SDS011;33046;52.270;6.832;2023-05-09T01:24:53;11.07;;;9.98;;
47309;SDS011;33046;52.270;6.832;2023-05-09T01:27:18;10.65;;;9.55;;
47309;SDS011;33046;52.270;6.832;2023-05-09T01:29:33;10.48;;;9.63;;
47309;SDS011;33046;52.270;6.832;2023-05-09T01:31:43;10.43;;;9.35;;
47309;SDS011;33046;52.270;6.832;2023-05-09T01:33:54;10.65;;;9.73;;
47309;SDS011;33046;52.270;6.832;2023-05-09T01:36:06;11.63;;;10.63;;
47309;SDS011;33046;52.270;6.832;2023-05-09T01:38:19;11.20;;;10.30;;
47309;SDS011;33046;52.270;6.832;2023-05-09T01:40:29;11.93;;;10.43;;
47309;SDS011;33046;52.270;6.832;2023-05-09T01:42:39;10.52;;;9.48;;
47309;SDS011;33046;52.270;6.832;2023-05-09T01:44:49;11.07;;;9.98;;
47309;SDS011;33046;52.270;6.832;2023-05-09T01:46:58;11.80;;;10.77;;
47309;SDS011;33046;52.270;6.832;2023-05-09T01:49:06;11.48;;;10.57;;
47309;SDS011;33046;52.270;6.832;2023-05-09T01:51:14;10.93;;;10.02;;
47309;SDS011;33046;52.270;6.832;2023-05-09T01:53:22;10.93;;;10.07;;
47309;SDS011;33046;52.270;6.832;2023-05-09T01:55:31;11.10;;;10.20;;
47309;SDS011;33046;52.270;6.832;2023-05-09T01:57:41;10.60;;;9.70;;
47309;SDS011;33046;52.270;6.832;2023-05-09T01:59:50;10.93;;;10.02;;
47309;SDS011;33046;52.270;6.832;2023-05-09T02:01:58;10.85;;;9.85;;
47309;SDS011;33046;52.270;6.832;2023-05-09T02:04:05;12.13;;;11.13;;
47309;SDS011;33046;52.270;6.832;2023-05-09T02:06:12;11.68;;;10.68;;
47309;SDS011;33046;52.270;6.832;2023-05-09T02:08:21;12.00;;;11.00;;
47309;SDS011;33046;52.270;6.832;2023-05-09T02:10:28;11.93;;;10.93;;
47309;SDS011;33046;52.270;6.832;2023-05-09T02:12:36;12.80;;;11.32;;
47309;SDS011;33046;52.270;6.832;2023-05-09T02:14:43;12.27;;;11.30;;
47309;SDS011;33046;52.270;6.832;2023-05-09T02:16:51;12.63;;;11.60;;
47309;SDS011;33046;52.270;6.832;2023-05-09T02:18:59;13.07;;;11.65;;
47309;SDS011;33046;52.270;6.832;2023-05-09T02:21:06;11.90;;;11.00;;
47309;SDS011;33046;52.270;6.832;2023-05-09T02:23:13;11.85;;;10.95;;
47309;SDS011;33046;52.270;6.832;2023-05-09T02:25:20;12.88;;;11.68;;
47309;SDS011;33046;52.270;6.832;2023-05-09T02:27:26;12.40;;;11.38;;
47309;SDS011;33046;52.270;6.832;2023-05-09T02:29:34;12.75;;;11.65;;
47309;SDS011;33046;52.270;6.832;2023-05-09T02:31:43;13.20;;;12.02;;
47309;SDS011;33046;52.270;6.832;2023-05-09T02:33:53;13.38;;;12.15;;
47309;SDS011;33046;52.270;6.832;2023-05-09T02:36:01;12.02;;;11.13;;
47309;SDS011;33046;52.270;6.832;2023-05-09T02:38:08;12.73;;;11.73;;
47309;SDS011;33046;52.270;6.832;2023-05-09T02:40:15;11.57;;;10.68;;
47309;SDS011;33046;52.270;6.832;2023-05-09T02:42:24;12.90;;;11.90;;
47309;SDS011;33046;52.270;6.832;2023-05-09T02:44:32;12.50;;;11.40;;
47309;SDS011;33046;52.270;6.832;2023-05-09T02:46:39;14.18;;;11.45;;
47309;SDS011;33046;52.270;6.832;2023-05-09T02:48:46;12.25;;;11.13;;
47309;SDS011;33046;52.270;6.832;2023-05-09T02:50:54;12.20;;;11.20;;
47309;SDS011;33046;52.270;6.832;2023-05-09T02:53:01;12.02;;;11.02;;
47309;SDS011;33046;52.270;6.832;2023-05-09T02:55:08;12.23;;;11.23;;
47309;SDS011;33046;52.270;6.832;2023-05-09T02:57:18;12.43;;;11.35;;
47309;SDS011;33046;52.270;6.832;2023-05-09T02:59:25;13.55;;;12.20;;
47309;SDS011;33046;52.270;6.832;2023-05-09T03:01:32;13.88;;;12.55;;
47309;SDS011;33046;52.270;6.832;2023-05-09T03:03:39;13.23;;;12.13;;
47309;SDS011;33046;52.270;6.832;2023-05-09T03:05:46;13.15;;;11.93;;
47309;SDS011;33046;52.270;6.832;2023-05-09T03:07:54;13.68;;;12.05;;
47309;SDS011;33046;52.270;6.832;2023-05-09T03:10:01;13.65;;;12.55;;
47309;SDS011;33046;52.270;6.832;2023-05-09T03:12:09;13.10;;;11.93;;
47309;SDS011;33046;52.270;6.832;2023-05-09T03:14:16;12.77;;;11.77;;
47309;SDS011;33046;52.270;6.832;2023-05-09T03:16:23;13.55;;;12.30;;
47309;SDS011;33046;52.270;6.832;2023-05-09T03:18:30;14.13;;;12.73;;
47309;SDS011;33046;52.270;6.832;2023-05-09T03:20:37;13.68;;;12.57;;
47309;SDS011;33046;52.270;6.832;2023-05-09T03:22:43;13.02;;;11.82;;
47309;SDS011;33046;52.270;6.832;2023-05-09T03:24:52;15.07;;;13.68;;
47309;SDS011;33046;52.270;6.832;2023-05-09T03:26:59;14.23;;;12.95;;
47309;SDS011;33046;52.270;6.832;2023-05-09T03:29:06;14.23;;;12.98;;
47309;SDS011;33046;52.270;6.832;2023-05-09T03:31:13;14.30;;;12.90;;
47309;SDS011;33046;52.270;6.832;2023-05-09T03:33:20;13.85;;;12.75;;
47309;SDS011;33046;52.270;6.832;2023-05-09T03:35:28;13.48;;;12.27;;
47309;SDS011;33046;52.270;6.832;2023-05-09T03:37:35;13.52;;;12.35;;
47309;SDS011;33046;52.270;6.832;2023-05-09T03:39:44;13.82;;;12.73;;
47309;SDS011;33046;52.270;6.832;2023-05-09T03:41:52;12.80;;;11.65;;
47309;SDS011;33046;52.270;6.832;2023-05-09T03:43:59;13.85;;;12.75;;
47309;SDS011;33046;52.270;6.832;2023-05-09T03:46:05;14.10;;;12.95;;
47309;SDS011;33046;52.270;6.832;2023-05-09T03:48:13;14.48;;;13.07;;
47309;SDS011;33046;52.270;6.832;2023-05-09T03:50:25;14.30;;;12.80;;
47309;SDS011;33046;52.270;6.832;2023-05-09T03:52:33;14.45;;;12.95;;
47309;SDS011;33046;52.270;6.832;2023-05-09T03:54:40;15.40;;;14.05;;
47309;SDS011;33046;52.270;6.832;2023-05-09T03:56:47;13.45;;;12.35;;
47309;SDS011;33046;52.270;6.832;2023-05-09T03:58:56;13.70;;;12.60;;
47309;SDS011;33046;52.270;6.832;2023-05-09T04:01:04;14.98;;;13.68;;
47309;SDS011;33046;52.270;6.832;2023-05-09T04:03:11;15.52;;;14.10;;
47309;SDS011;33046;52.270;6.832;2023-05-09T04:05:22;15.73;;;14.43;;
47309;SDS011;33046;52.270;6.832;2023-05-09T04:07:29;14.55;;;13.25;;
47309;SDS011;33046;52.270;6.832;2023-05-09T04:09:36;15.00;;;13.63;;
47309;SDS011;33046;52.270;6.832;2023-05-09T04:11:43;14.85;;;13.70;;
47309;SDS011;33046;52.270;6.832;2023-05-09T04:13:51;15.20;;;13.63;;
47309;SDS011;33046;52.270;6.832;2023-05-09T04:16:06;15.00;;;13.50;;
47309;SDS011;33046;52.270;6.832;2023-05-09T04:18:13;17.73;;;14.75;;
47309;SDS011;33046;52.270;6.832;2023-05-09T04:20:20;15.00;;;13.70;;
47309;SDS011;33046;52.270;6.832;2023-05-09T04:22:27;15.45;;;14.15;;
47309;SDS011;33046;52.270;6.832;2023-05-09T04:24:33;14.32;;;13.07;;
47309;SDS011;33046;52.270;6.832;2023-05-09T04:26:40;15.85;;;14.45;;
47309;SDS011;33046;52.270;6.832;2023-05-09T04:28:50;15.35;;;14.05;;
47309;SDS011;33046;52.270;6.832;2023-05-09T04:30:57;16.52;;;14.80;;
47309;SDS011;33046;52.270;6.832;2023-05-09T04:33:06;15.73;;;14.43;;
47309;SDS011;33046;52.270;6.832;2023-05-09T04:35:13;15.35;;;14.07;;
47309;SDS011;33046;52.270;6.832;2023-05-09T04:37:23;16.15;;;14.57;;
47309;SDS011;33046;52.270;6.832;2023-05-09T04:39:30;15.95;;;14.35;;
47309;SDS011;33046;52.270;6.832;2023-05-09T04:41:44;14.90;;;13.50;;
47309;SDS011;33046;52.270;6.832;2023-05-09T04:43:50;16.33;;;14.93;;
47309;SDS011;33046;52.270;6.832;2023-05-09T04:45:59;16.17;;;14.68;;
47309;SDS011;33046;52.270;6.832;2023-05-09T04:48:07;15.50;;;14.05;;
47309;SDS011;33046;52.270;6.832;2023-05-09T04:50:14;15.20;;;13.80;;
47309;SDS011;33046;52.270;6.832;2023-05-09T04:52:21;15.77;;;14.35;;
47309;SDS011;33046;52.270;6.832;2023-05-09T04:54:28;15.93;;;14.35;;
47309;SDS011;33046;52.270;6.832;2023-05-09T04:56:34;15.85;;;14.55;;
47309;SDS011;33046;52.270;6.832;2023-05-09T04:58:41;18.23;;;15.35;;
47309;SDS011;33046;52.270;6.832;2023-05-09T05:00:49;15.98;;;14.50;;
47309;SDS011;33046;52.270;6.832;2023-05-09T05:02:56;16.98;;;15.43;;
47309;SDS011;33046;52.270;6.832;2023-05-09T05:05:07;15.85;;;14.45;;
47309;SDS011;33046;52.270;6.832;2023-05-09T05:07:18;15.60;;;14.23;;
47309;SDS011;33046;52.270;6.832;2023-05-09T05:09:24;15.65;;;14.30;;
47309;SDS011;33046;52.270;6.832;2023-05-09T05:11:31;16.00;;;14.40;;
47309;SDS011;33046;52.270;6.832;2023-05-09T05:13:38;16.92;;;15.32;;
47309;SDS011;33046;52.270;6.832;2023-05-09T05:15:46;16.70;;;15.32;;
47309;SDS011;33046;52.270;6.832;2023-05-09T05:17:52;17.17;;;15.68;;
47309;SDS011;33046;52.270;6.832;2023-05-09T05:20:02;16.08;;;14.77;;
47309;SDS011;33046;52.270;6.832;2023-05-09T05:22:11;16.33;;;14.70;;
47309;SDS011;33046;52.270;6.832;2023-05-09T05:24:20;16.75;;;15.20;;
47309;SDS011;33046;52.270;6.832;2023-05-09T05:26:27;16.00;;;14.45;;
47309;SDS011;33046;52.270;6.832;2023-05-09T05:28:34;16.70;;;15.05;;
47309;SDS011;33046;52.270;6.832;2023-05-09T05:30:42;16.63;;;15.23;;
47309;SDS011;33046;52.270;6.832;2023-05-09T05:32:49;16.60;;;15.15;;
47309;SDS011;33046;52.270;6.832;2023-05-09T05:34:58;17.58;;;15.88;;
47309;SDS011;33046;52.270;6.832;2023-05-09T05:37:05;17.35;;;15.68;;
47309;SDS011;33046;52.270;6.832;2023-05-09T05:39:13;17.83;;;16.15;;
47309;SDS011;33046;52.270;6.832;2023-05-09T05:41:20;17.52;;;15.98;;
47309;SDS011;33046;52.270;6.832;2023-05-09T05:43:27;18.75;;;17.08;;
47309;SDS011;33046;52.270;6.832;2023-05-09T05:45:35;18.98;;;17.25;;
47309;SDS011;33046;52.270;6.832;2023-05-09T05:47:44;17.48;;;15.98;;
47309;SDS011;33046;52.270;6.832;2023-05-09T05:49:51;18.42;;;16.83;;
47309;SDS011;33046;52.270;6.832;2023-05-09T05:51:58;17.48;;;15.93;;
47309;SDS011;33046;52.270;6.832;2023-05-09T05:54:05;16.95;;;15.55;;
47309;SDS011;33046;52.270;6.832;2023-05-09T05:56:14;18.58;;;16.75;;
47309;SDS011;33046;52.270;6.832;2023-05-09T05:58:21;18.58;;;16.80;;
47309;SDS011;33046;52.270;6.832;2023-05-09T06:00:28;18.85;;;17.05;;
47309;SDS011;33046;52.270;6.832;2023-05-09T06:02:41;18.95;;;17.25;;
47309;SDS011;33046;52.270;6.832;2023-05-09T06:04:48;20.00;;;18.05;;
47309;SDS011;33046;52.270;6.832;2023-05-09T06:06:56;19.13;;;17.25;;
47309;SDS011;33046;52.270;6.832;2023-05-09T06:09:03;19.80;;;18.00;;
47309;SDS011;33046;52.270;6.832;2023-05-09T06:11:10;20.33;;;18.42;;
47309;SDS011;33046;52.270;6.832;2023-05-09T06:13:18;21.20;;;18.90;;
47309;SDS011;33046;52.270;6.832;2023-05-09T06:15:30;20.13;;;17.95;;
47309;SDS011;33046;52.270;6.832;2023-05-09T06:17:37;21.00;;;18.98;;
47309;SDS011;33046;52.270;6.832;2023-05-09T06:19:44;20.95;;;18.85;;
47309;SDS011;33046;52.270;6.832;2023-05-09T06:21:51;21.13;;;19.00;;
47309;SDS011;33046;52.270;6.832;2023-05-09T06:23:59;21.88;;;19.88;;
47309;SDS011;33046;52.270;6.832;2023-05-09T06:26:10;23.42;;;21.15;;
47309;SDS011;33046;52.270;6.832;2023-05-09T06:28:19;24.30;;;20.15;;
47309;SDS011;33046;52.270;6.832;2023-05-09T06:30:25;23.08;;;20.70;;
47309;SDS011;33046;52.270;6.832;2023-05-09T06:32:32;26.23;;;20.40;;
47309;SDS011;33046;52.270;6.832;2023-05-09T06:34:39;23.45;;;20.70;;
47309;SDS011;33046;52.270;6.832;2023-05-09T06:36:46;21.63;;;19.35;;
47309;SDS011;33046;52.270;6.832;2023-05-09T06:38:52;21.70;;;19.40;;
47309;SDS011;33046;52.270;6.832;2023-05-09T06:40:59;23.05;;;20.23;;
47309;SDS011;33046;52.270;6.832;2023-05-09T06:43:06;23.38;;;20.58;;
47309;SDS011;33046;52.270;6.832;2023-05-09T06:45:14;26.90;;;22.92;;
47309;SDS011;33046;52.270;6.832;2023-05-09T06:47:21;24.25;;;21.73;;
47309;SDS011;33046;52.270;6.832;2023-05-09T06:49:28;27.02;;;22.60;;
47309;SDS011;33046;52.270;6.832;2023-05-09T06:51:35;25.02;;;22.35;;
47309;SDS011;33046;52.270;6.832;2023-05-09T06:53:42;25.38;;;22.65;;
47309;SDS011;33046;52.270;6.832;2023-05-09T06:55:48;25.13;;;22.08;;
47309;SDS011;33046;52.270;6.832;2023-05-09T06:57:55;23.38;;;20.95;;
47309;SDS011;33046;52.270;6.832;2023-05-09T07:00:02;25.55;;;22.73;;
47309;SDS011;33046;52.270;6.832;2023-05-09T07:02:11;25.20;;;21.20;;
47309;SDS011;33046;52.270;6.832;2023-05-09T07:04:18;24.25;;;21.85;;
47309;SDS011;33046;52.270;6.832;2023-05-09T07:06:25;24.80;;;22.15;;
47309;SDS011;33046;52.270;6.832;2023-05-09T07:08:31;24.73;;;22.02;;
47309;SDS011;33046;52.270;6.832;2023-05-09T07:10:38;24.90;;;22.40;;
47309;SDS011;33046;52.270;6.832;2023-05-09T07:12:45;24.08;;;21.48;;
47309;SDS011;33046;52.270;6.832;2023-05-09T07:14:52;25.17;;;22.45;;
47309;SDS011;33046;52.270;6.832;2023-05-09T07:16:58;23.63;;;21.33;;
47309;SDS011;33046;52.270;6.832;2023-05-09T07:19:16;24.33;;;21.10;;
47309;SDS011;33046;52.270;6.832;2023-05-09T07:21:23;23.02;;;20.63;;
47309;SDS011;33046;52.270;6.832;2023-05-09T07:23:30;24.15;;;21.55;;
47309;SDS011;33046;52.270;6.832;2023-05-09T07:25:37;23.92;;;21.33;;
47309;SDS011;33046;52.270;6.832;2023-05-09T07:27:43;25.98;;;21.00;;
47309;SDS011;33046;52.270;6.832;2023-05-09T07:29:50;23.45;;;20.90;;
47309;SDS011;33046;52.270;6.832;2023-05-09T07:31:57;23.75;;;21.27;;
47309;SDS011;33046;52.270;6.832;2023-05-09T07:34:04;24.50;;;20.83;;
47309;SDS011;33046;52.270;6.832;2023-05-09T07:36:12;25.02;;;22.08;;
47309;SDS011;33046;52.270;6.832;2023-05-09T07:38:19;23.35;;;20.85;;
47309;SDS011;33046;52.270;6.832;2023-05-09T07:40:25;26.13;;;21.77;;
47309;SDS011;33046;52.270;6.832;2023-05-09T07:42:32;26.45;;;21.25;;
47309;SDS011;33046;52.270;6.832;2023-05-09T07:44:39;22.33;;;20.02;;
47309;SDS011;33046;52.270;6.832;2023-05-09T07:46:45;21.58;;;19.35;;
47309;SDS011;33046;52.270;6.832;2023-05-09T07:48:52;24.15;;;19.77;;
47309;SDS011;33046;52.270;6.832;2023-05-09T07:50:59;21.05;;;18.67;;
47309;SDS011;33046;52.270;6.832;2023-05-09T07:53:07;22.83;;;20.35;;
47309;SDS011;33046;52.270;6.832;2023-05-09T07:55:14;21.05;;;19.02;;
47309;SDS011;33046;52.270;6.832;2023-05-09T07:57:21;22.10;;;19.95;;
47309;SDS011;33046;52.270;6.832;2023-05-09T07:59:27;22.70;;;19.67;;
47309;SDS011;33046;52.270;6.832;2023-05-09T08:01:34;23.35;;;20.38;;
47309;SDS011;33046;52.270;6.832;2023-05-09T08:03:41;21.83;;;19.48;;
47309;SDS011;33046;52.270;6.832;2023-05-09T08:05:48;21.80;;;19.33;;
47309;SDS011;33046;52.270;6.832;2023-05-09T08:07:58;21.88;;;19.75;;
47309;SDS011;33046;52.270;6.832;2023-05-09T08:10:07;34.42;;;21.13;;
47309;SDS011;33046;52.270;6.832;2023-05-09T08:12:15;21.95;;;19.73;;
47309;SDS011;33046;52.270;6.832;2023-05-09T08:14:21;22.33;;;20.10;;
47309;SDS011;33046;52.270;6.832;2023-05-09T08:16:28;22.88;;;20.00;;
47309;SDS011;33046;52.270;6.832;2023-05-09T08:18:35;23.27;;;20.67;;
47309;SDS011;33046;52.270;6.832;2023-05-09T08:20:42;22.38;;;20.10;;
47309;SDS011;33046;52.270;6.832;2023-05-09T08:22:48;22.88;;;20.48;;
47309;SDS011;33046;52.270;6.832;2023-05-09T08:24:55;23.85;;;21.35;;
47309;SDS011;33046;52.270;6.832;2023-05-09T08:27:03;21.73;;;19.42;;
47309;SDS011;33046;52.270;6.832;2023-05-09T08:29:10;24.58;;;20.48;;
47309;SDS011;33046;52.270;6.832;2023-05-09T08:31:17;24.40;;;21.77;;
47309;SDS011;33046;52.270;6.832;2023-05-09T08:33:24;28.73;;;23.48;;
47309;SDS011;33046;52.270;6.832;2023-05-09T08:35:30;24.98;;;22.00;;
47309;SDS011;33046;52.270;6.832;2023-05-09T08:37:37;23.55;;;21.05;;
47309;SDS011;33046;52.270;6.832;2023-05-09T08:39:44;24.60;;;21.05;;
47309;SDS011;33046;52.270;6.832;2023-05-09T08:41:51;24.77;;;21.92;;
47309;SDS011;33046;52.270;6.832;2023-05-09T08:44:03;23.42;;;20.95;;
47309;SDS011;33046;52.270;6.832;2023-05-09T08:46:10;24.67;;;22.10;;
47309;SDS011;33046;52.270;6.832;2023-05-09T08:48:18;23.50;;;21.10;;
47309;SDS011;33046;52.270;6.832;2023-05-09T08:50:26;28.50;;;22.40;;
47309;SDS011;33046;52.270;6.832;2023-05-09T08:52:33;26.63;;;23.27;;
47309;SDS011;33046;52.270;6.832;2023-05-09T08:54:41;25.17;;;22.58;;
47309;SDS011;33046;52.270;6.832;2023-05-09T08:56:48;26.63;;;23.67;;
47309;SDS011;33046;52.270;6.832;2023-05-09T08:58:55;28.55;;;24.42;;
47309;SDS011;33046;52.270;6.832;2023-05-09T09:01:04;26.05;;;23.42;;
47309;SDS011;33046;52.270;6.832;2023-05-09T09:03:11;27.33;;;23.60;;
47309;SDS011;33046;52.270;6.832;2023-05-09T09:05:18;25.33;;;22.60;;
47309;SDS011;33046;52.270;6.832;2023-05-09T09:07:39;30.77;;;25.13;;
47309;SDS011;33046;52.270;6.832;2023-05-09T09:09:47;28.25;;;25.25;;
47309;SDS011;33046;52.270;6.832;2023-05-09T09:11:55;30.48;;;24.70;;
47309;SDS011;33046;52.270;6.832;2023-05-09T09:14:05;31.15;;;25.55;;
47309;SDS011;33046;52.270;6.832;2023-05-09T09:16:18;28.23;;;24.73;;
47309;SDS011;33046;52.270;6.832;2023-05-09T09:18:27;30.13;;;25.80;;
47309;SDS011;33046;52.270;6.832;2023-05-09T09:20:35;31.95;;;26.40;;
47309;SDS011;33046;52.270;6.832;2023-05-09T09:22:46;32.35;;;27.33;;
47309;SDS011;33046;52.270;6.832;2023-05-09T09:24:55;31.75;;;28.35;;
47309;SDS011;33046;52.270;6.832;2023-05-09T09:27:03;32.33;;;28.38;;
47309;SDS011;33046;52.270;6.832;2023-05-09T09:29:12;36.03;;;29.92;;
47309;SDS011;33046;52.270;6.832;2023-05-09T09:31:21;32.13;;;28.20;;
47309;SDS011;33046;52.270;6.832;2023-05-09T09:33:29;40.20;;;33.33;;
47309;SDS011;33046;52.270;6.832;2023-05-09T09:35:37;41.15;;;34.28;;
47309;SDS011;33046;52.270;6.832;2023-05-09T09:37:44;42.60;;;35.47;;
47309;SDS011;33046;52.270;6.832;2023-05-09T09:39:54;42.05;;;35.60;;
47309;SDS011;33046;52.270;6.832;2023-05-09T09:42:08;43.90;;;34.70;;
47309;SDS011;33046;52.270;6.832;2023-05-09T09:44:16;44.63;;;36.92;;
47309;SDS011;33046;52.270;6.832;2023-05-09T09:46:25;48.85;;;39.33;;
47309;SDS011;33046;52.270;6.832;2023-05-09T09:48:33;48.10;;;38.08;;
47309;SDS011;33046;52.270;6.832;2023-05-09T09:50:40;46.05;;;34.28;;
47309;SDS011;33046;52.270;6.832;2023-05-09T09:52:50;29.95;;;26.70;;
47309;SDS011;33046;52.270;6.832;2023-05-09T09:54:58;44.53;;;34.72;;
47309;SDS011;33046;52.270;6.832;2023-05-09T09:57:05;47.13;;;37.35;;
47309;SDS011;33046;52.270;6.832;2023-05-09T09:59:12;41.67;;;34.88;;
47309;SDS011;33046;52.270;6.832;2023-05-09T10:01:21;48.00;;;38.78;;
47309;SDS011;33046;52.270;6.832;2023-05-09T10:03:34;43.47;;;34.95;;
47309;SDS011;33046;52.270;6.832;2023-05-09T10:05:42;47.65;;;39.35;;
47309;SDS011;33046;52.270;6.832;2023-05-09T10:07:49;35.80;;;30.05;;
47309;SDS011;33046;52.270;6.832;2023-05-09T10:09:59;39.45;;;33.60;;
47309;SDS011;33046;52.270;6.832;2023-05-09T10:12:06;55.42;;;44.08;;
47309;SDS011;33046;52.270;6.832;2023-05-09T10:14:14;52.70;;;41.85;;
47309;SDS011;33046;52.270;6.832;2023-05-09T10:16:22;48.38;;;40.50;;
47309;SDS011;33046;52.270;6.832;2023-05-09T10:18:35;46.38;;;38.63;;
47309;SDS011;33046;52.270;6.832;2023-05-09T10:20:42;41.08;;;34.13;;
47309;SDS011;33046;52.270;6.832;2023-05-09T10:22:49;50.30;;;42.58;;
47309;SDS011;33046;52.270;6.832;2023-05-09T10:25:01;49.30;;;43.13;;
47309;SDS011;33046;52.270;6.832;2023-05-09T10:27:10;53.22;;;42.88;;
47309;SDS011;33046;52.270;6.832;2023-05-09T10:29:18;53.15;;;43.17;;
47309;SDS011;33046;52.270;6.832;2023-05-09T10:31:29;49.63;;;44.03;;
47309;SDS011;33046;52.270;6.832;2023-05-09T10:33:45;53.20;;;43.05;;
47309;SDS011;33046;52.270;6.832;2023-05-09T10:35:52;46.22;;;40.33;;
47309;SDS011;33046;52.270;6.832;2023-05-09T10:38:01;51.97;;;42.83;;
47309;SDS011;33046;52.270;6.832;2023-05-09T10:40:09;94.53;;;48.92;;
47309;SDS011;33046;52.270;6.832;2023-05-09T10:42:16;50.65;;;43.30;;
47309;SDS011;33046;52.270;6.832;2023-05-09T10:44:24;43.30;;;38.65;;
47309;SDS011;33046;52.270;6.832;2023-05-09T10:46:31;48.30;;;41.95;;
47309;SDS011;33046;52.270;6.832;2023-05-09T10:48:39;47.55;;;42.33;;
47309;SDS011;33046;52.270;6.832;2023-05-09T10:50:48;90.30;;;47.83;;
47309;SDS011;33046;52.270;6.832;2023-05-09T10:53:04;61.72;;;42.03;;
47309;SDS011;33046;52.270;6.832;2023-05-09T10:55:12;46.22;;;37.95;;
47309;SDS011;33046;52.270;6.832;2023-05-09T10:57:19;37.78;;;33.78;;
47309;SDS011;33046;52.270;6.832;2023-05-09T10:59:36;41.20;;;36.53;;
47309;SDS011;33046;52.270;6.832;2023-05-09T11:01:44;38.72;;;34.22;;
47309;SDS011;33046;52.270;6.832;2023-05-09T11:03:51;38.58;;;34.45;;
47309;SDS011;33046;52.270;6.832;2023-05-09T11:06:00;38.72;;;34.58;;
47309;SDS011;33046;52.270;6.832;2023-05-09T11:08:17;40.38;;;34.90;;
47309;SDS011;33046;52.270;6.832;2023-05-09T11:10:25;42.28;;;37.95;;
47309;SDS011;33046;52.270;6.832;2023-05-09T11:12:53;42.75;;;38.15;;
47309;SDS011;33046;52.270;6.832;2023-05-09T11:15:05;42.80;;;38.20;;
47309;SDS011;33046;52.270;6.832;2023-05-09T11:17:14;44.05;;;39.15;;
47309;SDS011;33046;52.270;6.832;2023-05-09T11:19:33;42.35;;;38.10;;
47309;SDS011;33046;52.270;6.832;2023-05-09T11:24:18;36.33;;;32.72;;
47309;SDS011;33046;52.270;6.832;2023-05-09T11:26:27;35.47;;;31.55;;
47309;SDS011;33046;52.270;6.832;2023-05-09T11:28:35;34.30;;;30.77;;
47309;SDS011;33046;52.270;6.832;2023-05-09T11:30:43;31.00;;;28.05;;
47309;SDS011;33046;52.270;6.832;2023-05-09T11:32:51;32.38;;;29.38;;
47309;SDS011;33046;52.270;6.832;2023-05-09T11:35:05;31.25;;;28.10;;
47309;SDS011;33046;52.270;6.832;2023-05-09T11:37:16;31.23;;;28.23;;
47309;SDS011;33046;52.270;6.832;2023-05-09T11:39:24;27.05;;;24.25;;
47309;SDS011;33046;52.270;6.832;2023-05-09T11:41:35;24.88;;;22.45;;
47309;SDS011;33046;52.270;6.832;2023-05-09T11:43:45;23.85;;;21.55;;
47309;SDS011;33046;52.270;6.832;2023-05-09T11:45:52;24.48;;;22.13;;
47309;SDS011;33046;52.270;6.832;2023-05-09T11:47:59;20.73;;;18.77;;
47309;SDS011;33046;52.270;6.832;2023-05-09T11:50:06;19.70;;;17.83;;
47309;SDS011;33046;52.270;6.832;2023-05-09T11:52:14;18.75;;;16.98;;
47309;SDS011;33046;52.270;6.832;2023-05-09T11:54:22;17.25;;;15.57;;
47309;SDS011;33046;52.270;6.832;2023-05-09T11:56:30;18.92;;;16.73;;
47309;SDS011;33046;52.270;6.832;2023-05-09T11:58:37;16.05;;;14.60;;
47309;SDS011;33046;52.270;6.832;2023-05-09T12:00:44;16.00;;;14.60;;
47309;SDS011;33046;52.270;6.832;2023-05-09T12:02:51;15.52;;;14.07;;
47309;SDS011;33046;52.270;6.832;2023-05-09T12:05:05;9.48;;;8.55;;
47309;SDS011;33046;52.270;6.832;2023-05-09T12:07:12;11.18;;;10.07;;
47309;SDS011;33046;52.270;6.832;2023-05-09T12:09:19;12.55;;;8.90;;
47309;SDS011;33046;52.270;6.832;2023-05-09T12:11:27;11.25;;;10.25;;
47309;SDS011;33046;52.270;6.832;2023-05-09T12:13:36;11.48;;;10.48;;
47309;SDS011;33046;52.270;6.832;2023-05-09T12:15:50;8.30;;;7.60;;
47309;SDS011;33046;52.270;6.832;2023-05-09T12:17:59;8.00;;;7.03;;
47309;SDS011;33046;52.270;6.832;2023-05-09T12:20:07;7.75;;;7.05;;
47309;SDS011;33046;52.270;6.832;2023-05-09T12:22:15;8.20;;;7.43;;
47309;SDS011;33046;52.270;6.832;2023-05-09T12:24:21;6.97;;;5.57;;
47309;SDS011;33046;52.270;6.832;2023-05-09T12:26:29;7.60;;;6.85;;
47309;SDS011;33046;52.270;6.832;2023-05-09T12:28:37;7.28;;;6.57;;
47309;SDS011;33046;52.270;6.832;2023-05-09T12:30:44;6.20;;;5.70;;
47309;SDS011;33046;52.270;6.832;2023-05-09T12:32:51;6.18;;;5.60;;
47309;SDS011;33046;52.270;6.832;2023-05-09T12:34:58;5.75;;;5.25;;
47309;SDS011;33046;52.270;6.832;2023-05-09T12:37:11;8.18;;;7.38;;